Time;durP1;ratioP1;P1;durP2;ratioP2;P2;SDS_P1;SDS_P2;PMS_P1;PMS_P2;Temp;Humidity;BMP_temperature;BMP_pressure;BME280_temperature;BME280_humidity;BME280_pressure;Samples;Min_cycle;Max_cycle;Signal;HPM_P1;HPM_P2
2022/06/18 00:00:30;;;;;;;6.17;5.97;;;;;;;19.41;84.01;66246.00;5118803;27;20728;-71
2022/06/18 00:02:56;;;;;;;6.00;5.80;;;;;;;19.37;83.94;66233.09;5115832;27;20243;-71
2022/06/18 00:05:23;;;;;;;6.23;6.03;;;;;;;19.22;84.63;66222.72;5133583;27;20188;-71
2022/06/18 00:07:53;;;;;;;6.63;6.30;;;;;;;19.19;84.60;66219.34;5131744;27;20232;-71
2022/06/18 00:10:24;;;;;;;5.80;5.70;;;;;;;19.15;84.69;66211.69;5133991;27;20192;-71
2022/06/18 00:15:38;;;;;;;6.40;6.10;;;;;;;19.02;85.67;66202.44;5129459;27;20666;-72
2022/06/18 00:18:13;;;;;;;6.17;5.97;;;;;;;18.97;86.01;66192.69;5117835;27;20191;-71
2022/06/18 00:20:40;;;;;;;6.60;6.43;;;;;;;19.01;86.79;66198.69;5133795;27;20188;-71
2022/06/18 00:23:13;;;;;;;7.70;5.93;;;;;;;18.97;86.70;66192.16;5133987;27;20219;-71
2022/06/18 00:25:42;;;;;;;5.63;5.53;;;;;;;18.96;86.67;66196.84;5126366;27;20223;-71
2022/06/18 00:28:16;;;;;;;6.63;6.30;;;;;;;18.94;87.26;66194.63;5115709;27;20262;-71
2022/06/18 00:30:42;;;;;;;6.70;6.60;;;;;;;18.95;87.46;66197.81;5132422;27;20188;-71
2022/06/18 00:33:08;;;;;;;6.03;5.87;;;;;;;;;;5133688;27;20274;-71
2022/06/18 00:35:35;;;;;;;9.47;6.40;;;;;;;18.97;87.21;66192.16;5135496;27;20689;-71
2022/06/18 00:38:04;;;;;;;6.67;6.27;;;;;;;18.92;86.87;66192.38;5129303;27;20556;-71
2022/06/18 00:40:38;;;;;;;5.70;5.40;;;;;;;18.89;87.25;66183.78;5133650;27;20654;-71
2022/06/18 00:43:18;;;;;;;6.17;6.03;;;;;;;18.90;87.46;66182.25;5130607;27;20223;-71
2022/06/18 00:45:45;;;;;;;6.43;6.23;;;;;;;18.81;87.70;66174.84;5130365;27;20222;-71
2022/06/18 00:48:23;;;;;;;6.87;6.47;;;;;;;18.80;87.98;66173.19;5114241;28;20209;-71
2022/06/18 00:51:03;;;;;;;5.87;5.77;;;;;;;18.79;87.87;66182.56;5113252;28;20223;-72
2022/06/18 00:53:43;;;;;;;6.67;6.57;;;;;;;18.80;87.61;66171.09;5097100;28;20250;-71
2022/06/18 00:56:36;;;;;;;5.93;5.80;;;;;;;18.84;87.93;66183.44;5118087;27;20269;-71
2022/06/18 00:59:47;;;;;;;9.40;5.80;;;;;;;18.99;87.51;66204.91;5133757;27;20193;-71
2022/06/18 01:02:18;;;;;;;5.60;5.50;;;;;;;18.93;87.50;66190.88;5010532;28;20304;-71
2022/06/18 01:04:45;;;;;;;6.27;6.10;;;;;;;18.94;87.75;66189.38;5106642;27;20291;-71
2022/06/18 01:07:32;;;;;;;6.93;6.60;;;;;;;18.96;87.23;66196.28;5116945;27;20238;-72
2022/06/18 01:10:00;;;;;;;6.33;6.23;;;;;;;19.01;86.45;66201.88;5108926;27;20573;-70
2022/06/18 01:12:28;;;;;;;5.57;5.47;;;;;;;19.17;83.92;66219.19;5105165;28;20213;-71
2022/06/18 01:15:04;;;;;;;5.27;5.13;;;;;;;19.27;83.32;66224.53;5095496;28;20189;-71
2022/06/18 01:17:35;;;;;;;6.33;6.07;;;;;;;19.39;82.50;66238.50;5112407;28;20233;-71
2022/06/18 01:20:05;;;;;;;5.00;4.70;;;;;;;19.52;81.19;66258.28;5114638;28;20177;-71
2022/06/18 01:22:52;;;;;;;5.40;5.30;;;;;;;19.70;78.87;66287.84;5104427;28;20205;-71
2022/06/18 01:25:19;;;;;;;4.37;4.27;;;;;;;19.89;77.82;66297.97;5112803;28;20711;-70
2022/06/18 01:27:49;;;;;;;5.50;5.10;;;;;;;20.15;75.42;66321.22;5114596;28;20279;-71
2022/06/18 01:30:38;;;;;;;5.43;4.80;;;;;;;20.35;74.46;66346.75;5115666;28;20188;-73
2022/06/18 01:33:13;;;;;;;4.20;4.10;;;;;;;20.96;70.71;66410.13;5094035;28;20663;-71
2022/06/18 01:35:44;;;;;;;5.00;4.80;;;;;;;21.34;69.01;66454.72;5100973;28;20275;-70
2022/06/18 01:38:14;;;;;;;5.07;4.70;;;;;;;21.52;67.50;66471.69;5094358;28;20625;-71
2022/06/18 01:41:49;;;;;;;5.33;5.20;;;;;;;22.02;65.31;66524.44;5095571;28;20718;-71
2022/06/18 01:43:57;;;;;;;5.30;4.07;;;;;;;22.55;62.49;66582.13;5102646;28;20355;-70
2022/06/18 01:46:26;;;;;;;4.90;4.80;;;;;;;22.68;61.91;66596.69;5094879;28;20580;-71
2022/06/18 01:48:54;;;;;;;4.73;4.27;;;;;;;;;;5095585;28;20212;-71
2022/06/18 01:51:42;;;;;;;4.13;4.03;;;;;;;;;;5097338;28;20218;-73
2022/06/18 01:54:21;;;;;;;4.43;4.33;;;;;;;23.06;59.82;66646.66;5104810;27;20188;-73
2022/06/18 01:56:58;;;;;;;4.87;4.77;;;;;;;23.10;59.32;66645.84;5093649;28;20648;-71
2022/06/18 01:59:31;;;;;;;5.17;4.67;;;;;;;23.12;59.51;66645.44;5091306;28;20242;-71
2022/06/18 02:02:00;;;;;;;4.63;4.40;;;;;;;;;;5106616;28;20208;-71
2022/06/18 02:04:27;;;;;;;4.27;4.27;;;;;;;23.10;59.62;66647.94;5110812;27;20197;-71
2022/06/18 02:06:54;;;;;;;4.90;4.60;;;;;;;23.02;60.13;66636.88;5100735;28;20215;-71
2022/06/18 02:09:47;;;;;;;4.63;4.23;;;;;;;22.92;60.25;66630.97;5106323;28;20209;-71
2022/06/18 02:12:19;;;;;;;5.13;4.60;;;;;;;22.82;60.69;66614.44;5096354;28;20299;-71
2022/06/18 02:14:50;;;;;;;5.03;4.83;;;;;;;22.75;60.86;66604.53;5097690;28;20242;-71
2022/06/18 02:17:18;;;;;;;4.60;4.50;;;;;;;22.69;60.89;66598.34;5097855;28;20283;-71
2022/06/18 02:20:00;;;;;;;5.57;5.00;;;;;;;22.70;60.92;66601.56;5124957;27;20268;-71
2022/06/18 02:22:40;;;;;;;4.87;4.50;;;;;;;22.67;61.15;66601.41;5119230;27;20219;-71
2022/06/18 02:25:07;;;;;;;4.63;4.53;;;;;;;22.67;61.04;66604.06;5111925;27;20295;-72
2022/06/18 02:27:34;;;;;;;5.07;4.47;;;;;;;22.57;61.61;66584.91;5136043;27;20188;-71
2022/06/18 02:30:01;;;;;;;4.70;4.27;;;;;;;22.62;61.18;66592.59;5133763;27;20224;-72
2022/06/18 02:32:42;;;;;;;4.30;4.20;;;;;;;22.57;61.61;66587.56;5118843;27;20611;-71
2022/06/18 02:35:12;;;;;;;4.37;4.27;;;;;;;22.59;61.93;66589.81;5108631;27;20245;-72
2022/06/18 02:37:39;;;;;;;4.00;4.00;;;;;;;22.57;62.04;66590.22;5109807;28;20202;-71
2022/06/18 02:40:26;;;;;;;4.60;4.50;;;;;;;22.51;62.48;66580.84;5098268;28;20222;-71
2022/06/18 02:42:57;;;;;;;4.37;4.30;;;;;;;22.58;62.85;66585.50;5102233;28;20261;-71
2022/06/18 02:45:29;;;;;;;4.47;4.47;;;;;;;22.55;62.36;66582.13;5082516;28;20231;-71
2022/06/18 02:47:58;;;;;;;4.70;4.53;;;;;;;;;;5087419;28;20535;-71
2022/06/18 02:50:29;;;;;;;4.67;4.47;;;;;;;22.44;63.14;66570.38;5098051;28;20213;-71
2022/06/18 02:53:02;;;;;;;4.80;4.70;;;;;;;22.53;62.81;66580.44;5097772;28;20216;-71
2022/06/18 02:55:32;;;;;;;4.93;4.83;;;;;;;;;;5098191;28;20193;-71
2022/06/18 02:58:22;;;;;;;5.20;5.10;;;;;;;22.56;63.22;66585.88;5116085;28;20217;-71
2022/06/18 03:00:53;;;;;;;4.73;4.50;;;;;;;22.59;63.04;66589.81;5095733;28;20182;-71
2022/06/18 03:03:23;;;;;;;4.30;4.30;;;;;;;22.56;63.07;66583.25;5079879;28;20612;-71
2022/06/18 03:05:52;;;;;;;4.23;4.13;;;;;;;;;;5116131;28;20173;-71
2022/06/18 03:08:21;;;;;;;4.87;4.77;;;;;;;22.56;62.94;66591.72;5115969;28;20188;-71
2022/06/18 03:13:36;;;;;;;4.73;4.53;;;;;;;;;;5098540;28;20182;-71
2022/06/18 03:16:06;;;;;;;4.67;4.67;;;;;;;22.70;62.32;66601.56;5097414;28;20235;-70
2022/06/18 03:18:36;;;;;;;4.90;4.80;;;;;;;22.59;63.23;66589.81;5097891;28;20647;-70
2022/06/18 03:21:17;;;;;;;11.43;4.80;;;;;;;22.61;62.90;66591.50;5097439;28;20209;-71
2022/06/18 03:23:45;;;;;;;4.20;4.13;;;;;;;22.62;63.48;66590.53;5116102;28;20235;-71
2022/06/18 03:26:13;;;;;;;5.13;5.03;;;;;;;;;;5097444;28;20227;-70
2022/06/18 03:28:40;;;;;;;6.00;4.90;;;;;;;;;;5097293;28;20766;-70
2022/06/18 03:31:08;;;;;;;5.17;4.93;;;;;;;22.60;63.05;66593.56;5097238;28;20304;-71
2022/06/18 03:33:37;;;;;;;6.87;5.43;;;;;;;22.73;62.66;66610.78;5097090;28;20189;-71
2022/06/18 03:36:05;;;;;;;5.63;4.70;;;;;;;22.78;62.70;66613.72;5097194;28;20193;-71
2022/06/18 03:38:33;;;;;;;5.03;4.83;;;;;;;22.73;62.63;66602.84;5097419;28;20722;-71
2022/06/18 03:40:59;;;;;;;5.20;4.90;;;;;;;;;;5115274;28;20221;-71
2022/06/18 03:43:27;;;;;;;4.80;4.57;;;;;;;22.68;62.84;66601.97;5097057;28;20201;-71
2022/06/18 03:46:00;;;;;;;5.30;5.20;;;;;;;22.72;62.80;66601.72;5097300;28;20194;-71
2022/06/18 03:48:31;;;;;;;4.70;4.60;;;;;;;22.71;63.09;66603.25;5096760;28;20185;-71
2022/06/18 03:50:58;;;;;;;4.50;4.47;;;;;;;22.75;62.49;66607.72;5115751;28;20207;-71
2022/06/18 03:53:24;;;;;;;6.43;4.87;;;;;;;;;;5096848;28;20189;-70
2022/06/18 03:55:51;;;;;;;5.50;5.03;;;;;;;22.71;63.46;66600.03;5097104;28;20196;-70
2022/06/18 03:58:18;;;;;;;4.93;4.93;;;;;;;22.73;63.30;66610.78;5096870;28;20242;-70
2022/06/18 04:00:45;;;;;;;5.27;5.17;;;;;;;22.71;62.95;66602.69;5096688;28;20733;-71
2022/06/18 04:03:12;;;;;;;6.07;5.13;;;;;;;22.73;63.34;66602.28;5096712;28;20590;-71
2022/06/18 04:05:40;;;;;;;5.40;4.90;;;;;;;22.74;63.17;66603.97;5115029;28;20557;-71
2022/06/18 04:08:11;;;;;;;6.77;6.03;;;;;;;22.68;63.44;66599.88;5096616;28;20200;-71
2022/06/18 04:10:43;;;;;;;4.90;4.83;;;;;;;;;;5096442;28;20275;-71
2022/06/18 04:13:10;;;;;;;4.90;4.63;;;;;;;22.61;63.88;66588.84;5096810;28;20193;-71
2022/06/18 04:15:59;;;;;;;5.20;4.87;;;;;;;22.51;64.37;66580.84;5106522;28;20227;-71
2022/06/18 04:18:27;;;;;;;5.17;4.77;;;;;;;;;;5096371;28;20189;-71
2022/06/18 04:20:56;;;;;;;5.43;5.17;;;;;;;22.46;64.62;66575.81;5096606;28;20208;-71
2022/06/18 04:23:26;;;;;;;12.33;5.00;;;;;;;;;;5096481;28;20193;-71
2022/06/18 04:25:52;;;;;;;7.23;5.47;;;;;;;22.46;64.70;66575.25;5095574;28;20204;-71
2022/06/18 04:28:19;;;;;;;5.73;5.27;;;;;;;22.51;64.49;66578.78;5097136;28;20182;-70
2022/06/18 04:30:54;;;;;;;5.37;5.27;;;;;;;22.36;65.14;66561.41;5094194;28;20291;-71
2022/06/18 04:33:26;;;;;;;5.63;5.23;;;;;;;22.41;64.84;66572.28;5112503;27;20331;-70
2022/06/18 04:36:19;;;;;;;5.80;5.43;;;;;;;22.43;64.42;66571.88;5116792;27;20215;-71
2022/06/18 04:38:46;;;;;;;5.47;5.37;;;;;;;22.36;65.44;66564.63;5116447;27;20227;-70
2022/06/18 04:41:32;;;;;;;8.80;5.33;;;;;;;22.43;64.95;66569.22;5099181;28;20212;-71
2022/06/18 04:44:08;;;;;;;6.63;5.33;;;;;;;22.44;65.17;66570.94;5094980;28;20196;-70
2022/06/18 04:46:36;;;;;;;7.83;5.27;;;;;;;22.48;65.37;66577.47;5095976;28;20193;-70
2022/06/18 04:49:09;;;;;;;5.67;5.23;;;;;;;22.49;64.69;66584.44;5101167;28;20683;-71
2022/06/18 04:51:35;;;;;;;5.27;5.13;;;;;;;22.44;65.30;66573.03;5093120;28;20213;-71
2022/06/18 04:54:02;;;;;;;8.80;5.33;;;;;;;22.47;65.77;66576.94;5095270;27;20604;-71
2022/06/18 04:56:30;;;;;;;4.70;4.67;;;;;;;22.47;65.28;66576.94;5116224;27;20192;-71
2022/06/18 04:58:56;;;;;;;6.37;6.00;;;;;;;22.55;64.94;66590.63;5116128;27;20558;-71
2022/06/18 05:01:31;;;;;;;5.30;5.20;;;;;;;22.51;66.38;66578.78;5116082;27;20212;-71
2022/06/18 05:04:16;;;;;;;5.60;5.30;;;;;;;22.55;66.34;66582.69;5116217;27;20227;-70
2022/06/18 05:06:57;;;;;;;12.47;5.30;;;;;;;22.50;66.71;66577.66;5116365;27;20215;-70
2022/06/18 05:09:48;;;;;;;4.57;4.50;;;;;;;;;;5115931;27;20712;-70
2022/06/18 05:12:33;;;;;;;5.50;5.20;;;;;;;22.55;67.18;66585.31;5115962;28;20227;-71
2022/06/18 05:15:30;;;;;;;4.77;4.43;;;;;;;22.64;67.26;66592.75;5115992;27;20188;-71
2022/06/18 05:17:57;;;;;;;5.67;5.13;;;;;;;22.64;66.57;66600.13;5134562;27;20189;-71
2022/06/18 05:20:23;;;;;;;4.97;4.87;;;;;;;22.68;67.03;66597.25;5134290;28;20524;-71
2022/06/18 05:22:55;;;;;;;5.00;4.70;;;;;;;22.68;66.83;66599.31;5115327;27;20243;-71
2022/06/18 05:25:21;;;;;;;5.17;5.07;;;;;;;22.68;67.05;66599.31;5115752;28;20188;-71
2022/06/18 05:27:48;;;;;;;6.47;4.57;;;;;;;22.71;67.55;66602.69;5115837;28;20188;-71
2022/06/18 05:30:35;;;;;;;5.00;4.90;;;;;;;22.74;66.59;66606.06;5133604;28;20247;-71
2022/06/18 05:33:03;;;;;;;5.50;5.07;;;;;;;22.78;67.23;66611.09;5108616;28;20299;-71
2022/06/18 05:35:33;;;;;;;5.90;5.50;;;;;;;;;;5116268;28;20200;-71
2022/06/18 05:38:01;;;;;;;6.37;5.87;;;;;;;22.83;65.94;66615.56;5103314;28;20193;-71
2022/06/18 05:40:28;;;;;;;6.43;5.77;;;;;;;22.83;65.34;66620.88;5093056;28;20193;-71
2022/06/18 05:42:55;;;;;;;6.33;5.90;;;;;;;22.95;65.24;66629.59;5113375;28;20208;-71
2022/06/18 05:45:22;;;;;;;8.93;5.73;;;;;;;23.02;64.25;66634.78;5103915;28;20219;-70
2022/06/18 05:47:49;;;;;;;6.20;5.67;;;;;;;22.90;65.11;66620.78;5115429;28;20283;-70
2022/06/18 05:50:19;;;;;;;5.80;5.53;;;;;;;22.95;64.70;66632.25;5098772;28;20212;-71
2022/06/18 05:52:47;;;;;;;5.87;5.57;;;;;;;23.00;63.77;66634.63;5109604;28;20241;-70
2022/06/18 05:55:26;;;;;;;7.37;5.30;;;;;;;22.99;64.91;66634.06;5103465;28;20193;-71
2022/06/18 05:58:28;;;;;;;6.17;5.57;;;;;;;23.04;64.14;66637.03;5019833;28;20282;-70
2022/06/18 06:01:02;;;;;;;6.90;6.37;;;;;;;;;;5074051;28;20220;-70
2022/06/18 06:03:30;;;;;;;6.57;6.07;;;;;;;23.06;63.70;66646.66;5101011;28;20241;-71
2022/06/18 06:05:56;;;;;;;6.00;5.40;;;;;;;23.05;64.45;66640.25;5094207;28;20655;-71
2022/06/18 06:08:23;;;;;;;5.43;5.13;;;;;;;23.13;63.86;66649.19;5096863;28;20196;-71
2022/06/18 06:13:36;;;;;;;6.20;5.73;;;;;;;23.23;63.67;66660.41;5088666;28;20284;-71
2022/06/18 06:16:03;;;;;;;6.00;5.60;;;;;;;23.20;63.85;66654.41;5098207;28;20185;-71
2022/06/18 06:18:30;;;;;;;7.53;6.03;;;;;;;23.25;63.74;66654.69;5095196;28;20189;-71
2022/06/18 06:20:57;;;;;;;6.07;5.63;;;;;;;;;;5104622;28;20189;-71
2022/06/18 06:23:24;;;;;;;6.37;6.17;;;;;;;;;;5111170;28;20224;-71
2022/06/18 06:25:50;;;;;;;10.20;6.50;;;;;;;;;;5116614;28;20238;-72
2022/06/18 06:28:20;;;;;;;7.90;6.43;;;;;;;23.43;63.47;66684.34;5111358;28;20223;-73
2022/06/18 06:30:47;;;;;;;7.00;6.37;;;;;;;23.46;65.07;66685.06;5117400;28;20228;-71
2022/06/18 06:33:14;;;;;;;6.50;6.17;;;;;;;23.41;63.84;66677.38;5110184;28;20262;-71
2022/06/18 06:35:42;;;;;;;6.07;5.83;;;;;;;;;;5119014;27;20217;-72
2022/06/18 06:38:10;;;;;;;14.90;6.13;;;;;;;23.52;63.49;66695.00;5111215;28;20598;-71
2022/06/18 06:40:36;;;;;;;6.57;6.17;;;;;;;;;;5112350;27;20667;-72
2022/06/18 06:43:03;;;;;;;8.70;6.07;;;;;;;23.61;63.74;66699.25;5119976;27;20245;-71
2022/06/18 06:45:33;;;;;;;5.90;5.50;;;;;;;23.55;63.91;66693.06;5113824;28;20254;-71
2022/06/18 06:48:01;;;;;;;6.43;6.13;;;;;;;23.65;63.14;66708.47;5116450;28;20185;-71
2022/06/18 06:50:29;;;;;;;7.13;6.40;;;;;;;23.65;63.31;66705.81;5116432;28;20637;-71
2022/06/18 06:52:56;;;;;;;7.80;6.07;;;;;;;23.75;62.72;66714.38;5116602;28;20718;-71
2022/06/18 06:59:00;;;;;;;6.90;6.47;;;;;;;23.80;62.75;66720.56;5156541;27;20942;-71
2022/06/18 07:01:26;;;;;;;9.07;7.27;;;;;;;;;;5135484;27;20689;-72
2022/06/18 07:03:53;;;;;;;7.63;7.13;;;;;;;23.93;63.52;66737.19;5126840;28;20193;-72
2022/06/18 07:06:20;;;;;;;11.37;7.03;;;;;;;23.97;62.04;66741.13;5130526;28;20592;-72
2022/06/18 07:08:47;;;;;;;7.90;7.50;;;;;;;24.05;62.21;66747.44;5129891;28;20226;-72
2022/06/18 07:11:15;;;;;;;8.33;7.53;;;;;;;24.08;62.23;66756.69;5132077;28;20616;-71
2022/06/18 07:13:41;;;;;;;11.17;6.67;;;;;;;24.16;62.23;66765.66;5112826;28;20185;-72
2022/06/18 07:16:13;;;;;;;7.47;6.77;;;;;;;24.25;62.01;66761.94;5129230;28;20674;-72
2022/06/18 07:18:40;;;;;;;7.13;6.77;;;;;;;24.25;61.84;66769.88;5131234;28;20200;-71
2022/06/18 07:21:11;;;;;;;7.37;6.73;;;;;;;24.40;61.32;66786.72;5131315;28;20233;-72
2022/06/18 07:23:37;;;;;;;16.63;6.53;;;;;;;;;;5113122;28;20196;-71
2022/06/18 07:26:04;;;;;;;7.47;7.00;;;;;;;;;;5131105;28;20199;-71
2022/06/18 07:28:35;;;;;;;6.87;6.30;;;;;;;24.51;61.80;66808.56;5126213;28;20234;-72
2022/06/18 07:31:01;;;;;;;8.43;7.60;;;;;;;;;;5128515;27;20219;-73
2022/06/18 07:33:33;;;;;;;10.43;7.30;;;;;;;24.53;60.88;66802.84;5130853;28;20239;-71
2022/06/18 07:35:59;;;;;;;6.40;6.10;;;;;;;24.57;60.42;66805.22;5126956;28;20189;-71
2022/06/18 07:38:27;;;;;;;8.80;6.40;;;;;;;24.58;59.86;66811.13;5129224;28;20208;-72
2022/06/18 07:40:55;;;;;;;9.90;5.90;;;;;;;24.73;61.31;66824.72;5129031;27;20197;-72
2022/06/18 07:43:28;;;;;;;10.70;6.50;;;;;;;24.67;60.21;66818.56;5130176;28;20228;-72
2022/06/18 07:45:54;;;;;;;8.53;6.67;;;;;;;24.78;60.14;66828.22;5129269;28;20227;-72
2022/06/18 07:48:21;;;;;;;9.20;6.13;;;;;;;24.90;59.88;66836.38;5128279;28;20212;-72
2022/06/18 07:50:48;;;;;;;7.47;6.80;;;;;;;24.89;59.57;66845.91;5127946;27;20246;-71
2022/06/18 07:53:17;;;;;;;12.07;6.17;;;;;;;24.86;59.45;66837.22;5128669;28;20686;-71
2022/06/18 07:55:44;;;;;;;7.90;6.23;;;;;;;25.01;59.79;66852.94;5127162;28;20193;-71
2022/06/18 07:58:10;;;;;;;6.70;6.03;;;;;;;25.02;58.59;66856.72;5123116;28;20220;-73
2022/06/18 08:00:40;;;;;;;12.40;7.33;;;;;;;;;;5124858;28;20216;-73
2022/06/18 08:03:07;;;;;;;7.27;6.47;;;;;;;;;;5109686;28;20208;-71
2022/06/18 08:05:34;;;;;;;9.03;6.37;;;;;;;25.36;59.10;66892.25;5128470;28;20275;-71
2022/06/18 08:08:00;;;;;;;6.15;5.65;;;;;;;;;;5125862;28;20258;-71
2022/06/18 08:10:49;;;;;;;11.38;5.90;;;;;;;25.46;59.33;66908.78;5104305;28;20201;-73
2022/06/18 08:13:15;;;;;;;7.25;6.63;;;;;;;;;;5111755;28;20281;-72
2022/06/18 08:15:47;;;;;;;8.88;5.95;;;;;;;;;;5114259;28;20239;-71
2022/06/18 08:18:14;;;;;;;5.43;5.32;;;;;;;25.48;58.88;66907.78;5115584;28;20213;-72
2022/06/18 08:21:01;;;;;;;9.43;6.67;;;;;;;25.60;58.93;66918.06;5111337;28;20234;-72
2022/06/18 08:23:27;;;;;;;10.70;7.05;;;;;;;;;;5114283;28;20193;-71
2022/06/18 08:25:53;;;;;;;6.30;5.80;;;;;;;25.70;58.99;66929.81;5112724;28;20259;-72
2022/06/18 08:28:20;;;;;;;6.82;5.82;;;;;;;25.70;57.72;66929.28;5114703;28;20183;-72
2022/06/18 08:30:47;;;;;;;7.07;6.38;;;;;;;25.89;58.42;66953.28;5111920;28;20356;-72
2022/06/18 08:33:13;;;;;;;9.80;6.93;;;;;;;;;;5114353;28;20250;-72
2022/06/18 08:35:40;;;;;;;9.15;6.00;;;;;;;25.99;57.46;66961.84;5115072;28;20189;-72
2022/06/18 08:38:08;;;;;;;8.27;6.35;;;;;;;26.11;57.86;66968.88;5115944;28;20259;-72
2022/06/18 08:40:47;;;;;;;12.75;6.50;;;;;;;;;;5115289;28;20236;-71
2022/06/18 08:43:34;;;;;;;9.80;6.72;;;;;;;;;;5111817;28;20226;-72
2022/06/18 08:46:24;;;;;;;6.53;6.18;;;;;;;26.39;58.62;67000.38;5113526;28;20697;-72
2022/06/18 08:49:09;;;;;;;11.88;6.97;;;;;;;26.50;56.07;67017.47;5114367;28;20189;-72
2022/06/18 08:52:11;;;;;;;6.00;5.60;;;;;;;26.55;57.88;67026.31;5111910;28;20208;-71
2022/06/18 08:54:40;;;;;;;9.32;6.10;;;;;;;26.73;57.19;67037.44;5111502;28;20234;-72
2022/06/18 08:57:16;;;;;;;7.97;6.72;;;;;;;26.85;56.58;67056.25;5109373;28;20200;-73
2022/06/18 09:00:02;;;;;;;24.35;6.28;;;;;;;26.84;55.19;67058.34;5115967;28;20245;-72
2022/06/18 09:02:39;;;;;;;12.40;6.75;;;;;;;26.81;54.78;67057.09;5114370;28;20217;-73
2022/06/18 09:05:29;;;;;;;11.70;7.32;;;;;;;;;;5106891;28;20185;-73
2022/06/18 09:08:12;;;;;;;7.68;6.72;;;;;;;26.91;52.40;67070.41;5091872;28;20214;-72
2022/06/18 09:11:09;;;;;;;6.70;6.10;;;;;;;26.98;54.12;67073.53;5076151;28;20217;-72
2022/06/18 09:13:41;;;;;;;8.13;7.30;;;;;;;26.95;53.98;67066.94;5111158;28;20535;-72
2022/06/18 09:16:11;;;;;;;13.98;7.18;;;;;;;27.06;54.03;67081.97;5112776;28;20193;-72
2022/06/18 09:18:48;;;;;;;9.07;6.90;;;;;;;27.09;53.07;67082.69;5114484;28;20197;-71
2022/06/18 09:21:24;;;;;;;34.40;7.88;;;;;;;27.24;53.64;67101.66;5113178;28;20228;-72
2022/06/18 09:23:53;;;;;;;7.82;7.10;;;;;;;;;;5115505;28;20185;-72
2022/06/18 09:26:28;;;;;;;30.00;6.45;;;;;;;27.29;53.83;67105.16;5112015;28;20236;-72
2022/06/18 09:29:02;;;;;;;7.78;6.75;;;;;;;;;;5113069;28;20238;-73
2022/06/18 09:31:35;;;;;;;12.40;6.65;;;;;;;27.35;52.61;67111.34;5115082;28;20213;-72
2022/06/18 09:34:08;;;;;;;9.18;6.45;;;;;;;;;;5115616;28;20169;-71
2022/06/18 09:36:43;;;;;;;30.30;7.63;;;;;;;27.47;53.13;67124.28;5113923;28;20231;-72
2022/06/18 09:39:39;;;;;;;7.63;7.03;;;;;;;27.62;53.44;67141.69;5112612;28;20231;-72
2022/06/18 09:42:14;;;;;;;16.55;7.30;;;;;;;27.67;51.85;67150.03;5103326;28;20213;-73
2022/06/18 09:44:46;;;;;;;19.58;6.55;;;;;;;27.54;51.39;67132.72;5113713;28;20274;-72
2022/06/18 09:47:28;;;;;;;8.00;6.90;;;;;;;27.70;53.18;67153.38;5096606;28;20556;-72
2022/06/18 09:49:55;;;;;;;6.63;6.30;;;;;;;;;;5114127;28;20196;-72
2022/06/18 09:52:39;;;;;;;11.90;8.70;;;;;;;27.96;52.81;67182.06;5114708;28;20722;-72
2022/06/18 09:55:16;;;;;;;5.93;5.68;;;;;;;27.97;51.74;67183.19;5113432;28;20221;-73
2022/06/18 09:57:47;;;;;;;6.45;5.90;;;;;;;28.06;52.11;67189.53;5109661;28;20773;-72
2022/06/18 10:00:18;;;;;;;5.78;5.25;;;;;;;;;;5112956;28;20256;-73
2022/06/18 10:02:53;;;;;;;6.53;5.78;;;;;;;28.13;50.17;67197.94;5114969;28;20296;-72
2022/06/18 10:08:09;;;;;;;17.20;6.32;;;;;;;;;;5094330;28;20201;-72
2022/06/18 10:10:36;;;;;;;22.88;7.35;;;;;;;;;;5095275;28;20675;-72
2022/06/18 10:13:06;;;;;;;6.68;5.93;;;;;;;;;;5095218;28;20240;-72
2022/06/18 10:15:35;;;;;;;9.20;5.78;;;;;;;28.44;49.89;67231.75;5113599;28;20188;-73
2022/06/18 10:18:21;;;;;;;12.10;6.90;;;;;;;28.45;50.99;67233.44;5093826;28;20555;-72
2022/06/18 10:21:06;;;;;;;8.68;6.10;;;;;;;28.48;48.96;67236.78;5095986;28;20233;-72
2022/06/18 10:24:06;;;;;;;10.27;6.47;;;;;;;28.48;48.89;67236.22;5108915;28;20189;-76
2022/06/18 10:26:56;;;;;;;17.08;6.00;;;;;;;28.54;48.68;67242.97;5113201;28;20208;-72
2022/06/18 10:29:22;;;;;;;8.55;4.82;;;;;;;;;;5110521;28;20188;-72
2022/06/18 10:31:57;;;;;;;12.38;5.53;;;;;;;28.73;50.23;67263.81;5112083;28;20300;-74
2022/06/18 10:34:43;;;;;;;15.07;5.25;;;;;;;28.84;47.73;67275.63;5109934;28;20275;-72
2022/06/18 10:37:22;;;;;;;34.13;6.10;;;;;;;28.85;45.37;67277.31;5109161;28;20224;-72
2022/06/18 10:40:21;;;;;;;5.78;5.43;;;;;;;29.12;46.69;67307.16;5112742;28;20266;-71
2022/06/18 10:42:59;;;;;;;6.03;5.45;;;;;;;29.17;47.13;67312.22;5114123;28;20683;-72
2022/06/18 10:45:37;;;;;;;14.77;6.32;;;;;;;29.16;46.57;67311.66;5111207;28;20232;-73
2022/06/18 10:48:08;;;;;;;15.20;6.05;;;;;;;;;;5108988;28;20212;-72
2022/06/18 10:50:42;;;;;;;11.35;5.43;;;;;;;;;;5113340;28;20735;-72
2022/06/18 10:53:13;;;;;;;8.82;6.18;;;;;;;29.26;43.41;67325.03;5108881;28;20612;-72
2022/06/18 10:55:40;;;;;;;8.85;5.30;;;;;;;29.27;47.03;67324.03;5109946;28;20193;-71
2022/06/18 10:58:11;;;;;;;11.93;5.45;;;;;;;29.42;43.07;67339.81;5111443;28;20308;-73
2022/06/18 11:00:38;;;;;;;6.95;5.72;;;;;;;29.50;44.49;67352.06;5111822;28;20271;-72
2022/06/18 11:03:16;;;;;;;6.35;5.00;;;;;;;;;;5110698;28;20251;-72
2022/06/18 11:05:46;;;;;;;8.65;5.35;;;;;;;29.53;41.18;67352.22;5110618;28;20208;-72
2022/06/18 11:08:31;;;;;;;15.73;5.28;;;;;;;29.57;42.47;67359.94;5113839;28;20185;-72
2022/06/18 11:11:03;;;;;;;12.18;4.80;;;;;;;;;;5088575;28;20189;-72
2022/06/18 11:13:36;;;;;;;9.05;7.72;;;;;;;29.70;42.51;67378.81;5113491;28;20701;-72
2022/06/18 11:16:14;;;;;;;18.88;4.95;;;;;;;29.65;41.24;67365.75;5112594;28;20195;-72
2022/06/18 11:18:57;;;;;;;14.45;4.60;;;;;;;29.82;42.30;67384.88;5113529;28;20614;-72
2022/06/18 11:21:32;;;;;;;5.85;4.82;;;;;;;;;;5111891;28;20250;-72
2022/06/18 11:24:03;;;;;;;11.60;4.45;;;;;;;;;;5112554;28;20600;-71
2022/06/18 11:26:43;;;;;;;10.70;4.32;;;;;;;30.06;40.73;67416.13;5105256;28;20189;-72
2022/06/18 11:29:18;;;;;;;8.45;3.95;;;;;;;;;;5108497;28;20234;-73
2022/06/18 11:31:48;;;;;;;11.30;4.22;;;;;;;30.18;40.89;67426.44;5111820;28;20237;-72
2022/06/18 11:34:24;;;;;;;13.48;4.45;;;;;;;30.11;41.52;67416.44;5112722;28;20278;-73
2022/06/18 11:36:53;;;;;;;8.40;5.05;;;;;;;30.15;39.72;67423.63;5113884;28;20187;-72
2022/06/18 11:39:24;;;;;;;9.60;4.40;;;;;;;30.12;40.28;67420.25;5112272;28;20232;-72
2022/06/18 11:41:57;;;;;;;13.38;4.38;;;;;;;30.29;39.81;67436.72;5113335;28;20244;-72
2022/06/18 11:44:31;;;;;;;16.20;4.25;;;;;;;30.39;39.29;67450.66;5110176;28;20193;-72
2022/06/18 11:47:10;;;;;;;13.00;4.82;;;;;;;30.49;40.32;67458.13;5114624;28;20207;-71
2022/06/18 11:49:42;;;;;;;16.02;4.93;;;;;;;;;;5115722;28;20185;-72
2022/06/18 11:52:13;;;;;;;6.40;3.97;;;;;;;;;;5113589;28;20251;-72
2022/06/18 11:54:57;;;;;;;7.80;3.88;;;;;;;30.70;39.27;67487.19;5116046;28;20207;-72
2022/06/18 11:57:38;;;;;;;7.65;3.88;;;;;;;30.70;38.05;67484.50;5115339;28;20237;-73
2022/06/18 12:00:10;;;;;;;25.50;4.18;;;;;;;30.68;38.20;67482.25;5108397;28;20237;-72
2022/06/18 12:02:58;;;;;;;11.75;3.92;;;;;;;30.82;39.35;67498.03;5116528;28;20224;-72
2022/06/18 12:05:46;;;;;;;5.97;3.38;;;;;;;30.99;36.25;67518.75;5116055;28;20195;-72
2022/06/18 12:08:18;;;;;;;10.15;3.85;;;;;;;30.94;35.79;67511.00;5112299;28;20185;-72
2022/06/18 12:11:00;;;;;;;6.53;3.97;;;;;;;30.94;36.26;67508.88;5113580;28;20231;-74
2022/06/18 12:13:46;;;;;;;11.13;3.35;;;;;;;31.03;35.18;67520.56;5112215;28;20588;-75
2022/06/18 12:16:45;;;;;;;14.82;3.75;;;;;;;31.08;37.17;67526.22;5106929;28;20613;-72
2022/06/18 12:19:29;;;;;;;3.50;3.20;;;;;;;;;;5109301;28;20229;-72
2022/06/18 12:22:11;;;;;;;12.85;3.63;;;;;;;31.06;34.32;67526.63;5110943;28;20213;-73
2022/06/18 12:24:41;;;;;;;11.40;3.65;;;;;;;;;;5112479;28;20238;-72
2022/06/18 12:27:13;;;;;;;13.25;3.90;;;;;;;31.14;35.58;67530.28;5115710;28;20224;-72
2022/06/18 12:29:44;;;;;;;10.27;3.88;;;;;;;;;;5112381;28;20209;-72
2022/06/18 12:32:20;;;;;;;11.63;4.00;;;;;;;31.25;36.92;67542.72;5115346;28;20216;-73
2022/06/18 12:35:02;;;;;;;14.88;2.88;;;;;;;31.40;36.19;67559.06;5112923;28;20185;-72
2022/06/18 12:37:45;;;;;;;10.25;2.83;;;;;;;31.44;33.99;67566.28;5111932;28;20220;-74
2022/06/18 12:40:38;;;;;;;13.65;3.53;;;;;;;31.47;32.83;67569.63;5089999;28;20201;-73
2022/06/18 12:43:13;;;;;;;10.80;3.28;;;;;;;;;;5110264;28;20213;-73
2022/06/18 12:46:03;;;;;;;14.68;3.35;;;;;;;31.69;34.71;67591.19;5115135;28;20219;-74
2022/06/18 12:48:57;;;;;;;17.33;3.45;;;;;;;31.66;35.15;67587.81;5098687;28;20201;-74